createdAt,value
2018-02-02T00:00:41.765Z,26.35
2018-02-02T00:01:47.077Z,34.60
2018-02-02T00:02:52.053Z,37.25
2018-02-02T00:03:56.265Z,26.30
2018-02-02T00:05:00.463Z,30.73
2018-02-02T00:06:05.453Z,39.10
2018-02-02T00:07:10.171Z,27.83
2018-02-02T00:08:15.575Z,33.50
2018-02-02T00:09:19.810Z,33.75
2018-02-02T00:10:24.015Z,27.30
2018-02-02T00:11:28.212Z,33.17
2018-02-02T00:12:32.415Z,25.75
2018-02-02T00:13:37.311Z,33.33
2018-02-02T00:14:41.555Z,35.60
2018-02-02T00:15:45.819Z,35.13
2018-02-02T00:16:50.790Z,38.72
2018-02-02T00:17:55.009Z,33.53
2018-02-02T00:18:59.213Z,36.10
2018-02-02T00:20:04.024Z,32.08
2018-02-02T00:21:09.124Z,39.23
2018-02-02T00:22:13.640Z,38.80
2018-02-02T00:23:17.865Z,30.48
2018-02-02T00:24:22.057Z,36.50
2018-02-02T00:25:26.226Z,26.08
2018-02-02T00:26:30.447Z,32.03
2018-02-02T00:27:35.428Z,35.67
2018-02-02T00:28:39.627Z,39.33
2018-02-02T00:29:43.804Z,31.08
2018-02-02T00:30:48.005Z,29.08
2018-02-02T00:31:52.268Z,39.30
2018-02-02T00:32:56.461Z,28.85
2018-02-02T00:34:00.707Z,32.80
2018-02-02T00:35:05.699Z,28.73
2018-02-02T00:36:09.959Z,37.00
2018-02-02T00:37:14.992Z,26.10
2018-02-02T00:38:19.536Z,28.77
2018-02-02T00:39:23.839Z,33.20
2018-02-02T00:40:28.116Z,31.10
2018-02-02T00:41:32.313Z,27.97
2018-02-02T00:42:36.569Z,29.10
2018-02-02T00:43:40.748Z,33.17
2018-02-02T00:44:45.163Z,29.47
2018-02-02T00:45:49.685Z,30.15
2018-02-02T00:46:54.711Z,43.03
2018-02-02T00:47:58.939Z,35.10
2018-02-02T00:49:03.895Z,28.90
2018-02-02T00:50:08.096Z,33.73
2018-02-02T00:51:18.315Z,35.70
2018-02-02T00:52:23.623Z,28.67
2018-02-02T00:53:29.063Z,32.63
2018-02-02T00:54:33.234Z,28.40
2018-02-02T00:55:37.441Z,28.10
2018-02-02T00:56:41.679Z,27.87
2018-02-02T00:57:46.693Z,33.08
2018-02-02T00:58:51.043Z,42.97
2018-02-02T00:59:55.468Z,29.03
2018-02-02T01:00:59.726Z,30.70
2018-02-02T01:02:04.015Z,30.97
2018-02-02T01:03:09.021Z,32.83
2018-02-02T01:04:13.267Z,41.93
2018-02-02T01:05:18.207Z,35.45
2018-02-02T01:06:22.424Z,42.28
2018-02-02T01:07:26.695Z,37.65
2018-02-02T01:08:30.885Z,44.50
2018-02-02T01:09:35.117Z,37.97
2018-02-02T01:10:39.301Z,37.83
2018-02-02T01:11:43.498Z,44.17
2018-02-02T01:12:47.986Z,43.38
2018-02-02T01:13:52.214Z,37.17
2018-02-02T01:14:56.903Z,37.47
2018-02-02T01:16:01.847Z,43.75
2018-02-02T01:17:06.057Z,47.92
2018-02-02T01:18:10.255Z,38.95
2018-02-02T01:19:15.484Z,44.33
2018-02-02T01:20:20.621Z,45.20
2018-02-02T01:21:25.631Z,41.50
2018-02-02T01:22:30.690Z,34.97
2018-02-02T01:23:34.905Z,55.85
2018-02-02T01:24:39.103Z,46.10
2018-02-02T01:25:43.399Z,43.20
2018-02-02T01:26:48.887Z,42.00
2018-02-02T01:27:54.056Z,40.78
2018-02-02T01:28:58.303Z,40.97
2018-02-02T01:30:03.280Z,30.30
2018-02-02T01:31:07.513Z,44.63
2018-02-02T01:32:11.701Z,43.40
2018-02-02T01:33:16.047Z,39.80
2018-02-02T01:34:21.086Z,37.23
2018-02-02T01:35:26.199Z,41.47
2018-02-02T01:36:30.435Z,41.28
2018-02-02T01:37:35.375Z,34.67
2018-02-02T01:38:39.585Z,37.40
2018-02-02T01:39:43.791Z,39.78
2018-02-02T01:40:48.077Z,31.27
2018-02-02T01:41:52.525Z,32.47
2018-02-02T01:42:56.741Z,36.03
2018-02-02T01:44:00.943Z,37.58
2018-02-02T01:45:05.152Z,38.65
2018-02-02T01:46:09.380Z,34.47
2018-02-02T01:47:13.685Z,41.85
2018-02-02T01:48:22.090Z,39.05
2018-02-02T01:49:26.625Z,38.42
2018-02-02T01:50:30.808Z,42.65
2018-02-02T01:51:34.996Z,44.15
2018-02-02T01:52:39.186Z,42.43
2018-02-02T01:53:43.495Z,54.67
2018-02-02T01:54:47.945Z,39.10
2018-02-02T01:55:52.253Z,44.65
2018-02-02T01:56:57.211Z,38.03
2018-02-02T01:58:01.392Z,40.12
2018-02-02T01:59:05.560Z,37.60
2018-02-02T02:00:09.805Z,36.90
2018-02-02T02:01:14.012Z,40.03
2018-02-02T02:02:19.090Z,38.67
2018-02-02T02:03:23.510Z,41.13
2018-02-02T02:04:27.882Z,46.92
2018-02-02T02:05:32.074Z,37.50
2018-02-02T02:06:36.272Z,39.08
2018-02-02T02:07:40.474Z,44.88
2018-02-02T02:08:44.836Z,45.55
2018-02-02T02:09:49.248Z,45.45
2018-02-02T02:10:55.134Z,47.95
2018-02-02T02:11:59.367Z,48.35
2018-02-02T02:13:03.563Z,51.03
2018-02-02T02:14:08.087Z,51.22
2018-02-02T02:15:12.264Z,48.63
2018-02-02T02:16:18.325Z,47.78
2018-02-02T02:17:23.078Z,54.03
2018-02-02T02:18:27.287Z,52.80
2018-02-02T02:19:31.903Z,57.88
2018-02-02T02:20:36.127Z,58.28
2018-02-02T02:21:40.318Z,58.30
2018-02-02T02:22:44.831Z,50.93
2018-02-02T02:23:49.129Z,52.80
2018-02-02T02:24:53.673Z,58.97
2018-02-02T02:25:57.915Z,53.00
2018-02-02T02:27:02.120Z,57.30
2018-02-02T02:28:06.306Z,53.35
2018-02-02T02:29:10.499Z,53.33
2018-02-02T02:30:14.758Z,52.53
2018-02-02T02:31:19.095Z,57.37
2018-02-02T02:32:24.140Z,53.15
2018-02-02T02:33:28.337Z,52.67
2018-02-02T02:34:32.512Z,58.55
2018-02-02T02:35:36.766Z,58.55
2018-02-02T02:36:41.767Z,53.85
2018-02-02T02:37:46.342Z,50.53
2018-02-02T02:38:50.710Z,51.67
2018-02-02T02:39:55.077Z,47.33
2018-02-02T02:40:59.295Z,51.70
2018-02-02T02:42:03.472Z,55.92
2018-02-02T02:43:08.445Z,51.03
2018-02-02T02:44:12.643Z,52.30
2018-02-02T02:45:17.216Z,54.80
2018-02-02T02:46:21.525Z,62.47
2018-02-02T02:47:26.648Z,64.87
2018-02-02T02:48:30.874Z,60.38
2018-02-02T02:49:35.864Z,52.55
2018-02-02T02:50:40.059Z,56.70
2018-02-02T02:51:44.788Z,58.67
2018-02-02T02:52:49.368Z,62.83
2018-02-02T02:53:54.488Z,61.37
2018-02-02T02:54:59.464Z,58.75
2018-02-02T02:56:03.651Z,65.15
2018-02-02T02:57:07.818Z,59.80
2018-02-02T02:58:13.501Z,64.50
2018-02-02T02:59:19.274Z,58.50
2018-02-02T03:00:23.577Z,58.20
2018-02-02T03:01:27.810Z,58.60
2018-02-02T03:02:32.015Z,53.60
2018-02-02T03:03:36.219Z,60.83
2018-02-02T03:04:40.420Z,52.50
2018-02-02T03:05:44.755Z,59.65
2018-02-02T03:06:49.085Z,70.40
2018-02-02T03:07:53.480Z,57.90
2018-02-02T03:08:57.696Z,62.45
2018-02-02T03:10:01.933Z,57.15
2018-02-02T03:11:06.135Z,57.25
2018-02-02T03:12:10.375Z,58.25
2018-02-02T03:13:15.452Z,56.83
2018-02-02T03:14:19.989Z,56.78
2018-02-02T03:15:24.319Z,62.13
2018-02-02T03:16:29.400Z,57.25
2018-02-02T03:17:33.571Z,58.42
2018-02-02T03:18:38.531Z,62.47
2018-02-02T03:19:42.717Z,72.95
2018-02-02T03:20:47.830Z,56.30
2018-02-02T03:21:53.457Z,54.28
2018-02-02T03:22:57.710Z,63.70
2018-02-02T03:24:02.666Z,60.50
2018-02-02T03:25:07.098Z,66.32
2018-02-02T03:26:11.502Z,61.30
2018-02-02T03:27:15.872Z,58.97
2018-02-02T03:28:20.094Z,61.55
2018-02-02T03:29:25.032Z,62.67
2018-02-02T03:30:29.204Z,67.70
2018-02-02T03:31:33.455Z,62.90
2018-02-02T03:32:38.538Z,64.87
2018-02-02T03:33:43.277Z,68.18
2018-02-02T03:34:48.376Z,66.82
2018-02-02T03:35:52.559Z,69.75
2018-02-02T03:36:56.783Z,69.00
2018-02-02T03:38:00.950Z,69.25
2018-02-02T03:39:06.105Z,59.08
2018-02-02T03:40:10.517Z,63.40
2018-02-02T03:41:15.244Z,69.68
2018-02-02T03:42:19.508Z,69.47
2018-02-02T03:43:23.717Z,64.33
2018-02-02T03:44:27.904Z,79.00
2018-02-02T03:45:32.156Z,63.07
2018-02-02T03:46:37.537Z,75.90
2018-02-02T03:47:41.941Z,70.32
2018-02-02T03:48:46.276Z,72.97
2018-02-02T03:49:50.487Z,76.20
2018-02-02T03:50:54.681Z,70.78
2018-02-02T03:51:59.194Z,74.40
2018-02-02T03:53:03.407Z,84.60
2018-02-02T03:54:07.827Z,86.20
2018-02-02T03:55:12.403Z,80.90
2018-02-02T03:56:17.456Z,76.95
2018-02-02T03:57:21.747Z,71.00
2018-02-02T03:58:26.694Z,69.95
2018-02-02T03:59:30.913Z,82.30
2018-02-02T04:00:35.184Z,91.03
2018-02-02T04:01:40.395Z,85.30
2018-02-02T04:02:44.864Z,77.53
2018-02-02T04:03:49.077Z,82.35
2018-02-02T04:04:53.289Z,76.93
2018-02-02T04:05:58.232Z,82.73
2018-02-02T04:07:02.446Z,72.00
2018-02-02T04:08:07.400Z,75.00
2018-02-02T04:09:11.944Z,85.80
2018-02-02T04:10:16.410Z,84.30
2018-02-02T04:11:20.587Z,74.45
2018-02-02T04:12:24.755Z,77.87
2018-02-02T04:13:28.949Z,74.07
2018-02-02T04:14:33.138Z,67.22
2018-02-02T04:15:38.297Z,70.07
2018-02-02T04:16:43.407Z,73.82
2018-02-02T04:17:47.735Z,69.67
2018-02-02T04:18:51.931Z,76.20
2018-02-02T04:19:56.153Z,68.30
2018-02-02T04:21:00.384Z,69.55
2018-02-02T04:22:06.778Z,62.27
2018-02-02T04:23:11.837Z,73.03
2018-02-02T04:24:16.054Z,65.35
2018-02-02T04:25:20.227Z,72.60
2018-02-02T04:26:25.294Z,63.08
2018-02-02T04:27:29.472Z,63.65
2018-02-02T04:28:33.658Z,65.50
2018-02-02T04:29:38.646Z,68.57
2018-02-02T04:30:42.862Z,73.45
2018-02-02T04:31:47.108Z,57.85
2018-02-02T04:32:51.290Z,57.83
2018-02-02T04:33:55.928Z,57.53
2018-02-02T04:35:00.185Z,56.63
2018-02-02T04:36:04.372Z,65.37
2018-02-02T04:37:08.596Z,66.00
2018-02-02T04:38:12.817Z,54.47
2018-02-02T04:39:18.088Z,61.83
2018-02-02T04:40:22.391Z,55.03
2018-02-02T04:41:26.611Z,56.23
2018-02-02T04:42:30.853Z,55.07
2018-02-02T04:43:35.019Z,52.60
2018-02-02T04:44:39.205Z,63.83
2018-02-02T04:45:43.447Z,56.50
2018-02-02T04:46:48.136Z,46.22
2018-02-02T04:47:52.910Z,44.47
2018-02-02T04:48:58.155Z,48.10
2018-02-02T04:50:03.112Z,42.20
2018-02-02T04:51:07.285Z,41.80
2018-02-02T04:52:12.242Z,44.28
2018-02-02T04:53:17.719Z,47.75
2018-02-02T04:54:22.818Z,43.20
2018-02-02T04:55:27.221Z,41.92
2018-02-02T04:56:31.414Z,46.47
2018-02-02T04:57:36.408Z,40.67
2018-02-02T04:58:40.607Z,46.17
2018-02-02T04:59:44.885Z,45.80
2018-02-02T05:00:49.955Z,47.60
2018-02-02T05:01:54.176Z,38.03
2018-02-02T05:02:58.422Z,44.00
2018-02-02T05:04:03.407Z,36.93
2018-02-02T05:05:07.636Z,42.10
2018-02-02T05:06:11.839Z,35.13
2018-02-02T05:07:16.722Z,33.97
2018-02-02T05:08:21.157Z,33.60
2018-02-02T05:09:25.791Z,33.93
2018-02-02T05:10:30.125Z,31.77
2018-02-02T05:11:34.306Z,31.37
2018-02-02T05:12:38.516Z,29.25
2018-02-02T05:13:42.701Z,31.87
2018-02-02T05:14:47.182Z,34.88
2018-02-02T05:15:52.193Z,37.20
2018-02-02T05:16:56.438Z,30.88
2018-02-02T05:18:01.479Z,27.58
2018-02-02T05:19:05.706Z,27.33
2018-02-02T05:20:09.921Z,23.20
2018-02-02T05:21:14.159Z,23.00
2018-02-02T05:22:19.353Z,22.65
2018-02-02T05:23:23.612Z,19.37
2018-02-02T05:24:27.842Z,19.27
2018-02-02T05:25:32.030Z,21.40
2018-02-02T05:26:36.276Z,21.05
2018-02-02T05:27:41.225Z,23.30
2018-02-02T05:28:46.251Z,17.58
2018-02-02T05:29:50.612Z,17.33
2018-02-02T05:30:54.873Z,17.98
2018-02-02T05:31:59.099Z,13.32
2018-02-02T05:33:03.304Z,7.55
2018-02-02T05:34:07.483Z,8.77
2018-02-02T05:35:12.448Z,9.65
2018-02-02T05:36:16.632Z,10.73
2018-02-02T05:37:21.957Z,10.15
2018-02-02T05:38:26.347Z,8.15
2018-02-02T05:39:30.588Z,7.13
2018-02-02T05:40:35.559Z,5.62
2018-02-02T05:41:39.771Z,8.97
2018-02-02T05:42:43.986Z,7.75
2018-02-02T05:43:49.321Z,6.93
2018-02-02T05:44:54.492Z,6.83
2018-02-02T05:45:59.492Z,6.70
2018-02-02T05:47:03.665Z,6.60
2018-02-02T05:48:07.832Z,6.62
2018-02-02T05:49:12.018Z,10.23
2018-02-02T05:50:16.524Z,9.48
2018-02-02T05:51:21.671Z,10.23
2018-02-02T05:52:25.916Z,6.25
2018-02-02T05:53:30.195Z,5.28
2018-02-02T05:54:34.364Z,6.03
2018-02-02T05:55:39.379Z,6.07
2018-02-02T05:56:44.316Z,4.90
2018-02-02T05:57:49.441Z,6.95
2018-02-02T05:58:53.844Z,6.72
2018-02-02T05:59:58.801Z,6.77
2018-02-02T06:01:03.043Z,6.90
2018-02-02T06:02:07.250Z,4.62
2018-02-02T06:03:11.414Z,9.32
2018-02-02T06:04:15.648Z,5.40
2018-02-02T06:05:20.539Z,4.30
2018-02-02T06:06:25.610Z,4.97
2018-02-02T06:07:29.819Z,8.25
2018-02-02T06:08:34.050Z,7.25
2018-02-02T06:09:38.220Z,4.97
2018-02-02T06:10:43.157Z,5.30
2018-02-02T06:11:48.541Z,5.15
2018-02-02T06:12:52.851Z,4.60
2018-02-02T06:13:57.621Z,6.37
2018-02-02T06:15:02.589Z,4.07
2018-02-02T06:16:06.778Z,5.12
2018-02-02T06:17:10.971Z,4.18
2018-02-02T06:18:16.036Z,3.08
2018-02-02T06:19:38.107Z,7.00
2018-02-02T06:20:42.660Z,3.83
2018-02-02T06:21:47.801Z,5.50
2018-02-02T06:22:52.042Z,8.10
2018-02-02T06:23:56.355Z,4.82
2018-02-02T06:25:00.555Z,5.85
2018-02-02T06:26:04.795Z,5.53
2018-02-02T06:27:09.011Z,5.63
2018-02-02T06:28:13.198Z,6.05
2018-02-02T06:29:18.138Z,7.32
2018-02-02T06:30:23.505Z,8.52
2018-02-02T06:31:28.475Z,7.50
2018-02-02T06:32:32.674Z,7.70
2018-02-02T06:33:36.859Z,7.18
2018-02-02T06:34:41.787Z,8.68
2018-02-02T06:35:46.927Z,8.27
2018-02-02T06:36:51.564Z,10.70
2018-02-02T06:37:55.809Z,9.25
2018-02-02T06:38:59.994Z,9.23
2018-02-02T06:40:04.196Z,8.05
2018-02-02T06:41:08.432Z,9.88
2018-02-02T06:42:12.604Z,8.03
2018-02-02T06:43:17.970Z,8.80
2018-02-02T06:44:22.229Z,9.98
2018-02-02T06:45:26.441Z,7.25
2018-02-02T06:46:30.617Z,11.52
2018-02-02T06:47:34.788Z,9.38
2018-02-02T06:48:40.241Z,9.02
2018-02-02T06:49:44.421Z,9.00
2018-02-02T06:50:50.127Z,8.38
2018-02-02T06:51:54.396Z,12.48
2018-02-02T06:52:58.606Z,11.80
2018-02-02T06:54:03.651Z,15.20
2018-02-02T06:55:07.859Z,11.65
2018-02-02T06:56:12.050Z,10.82
2018-02-02T06:57:17.814Z,13.35
2018-02-02T06:58:22.071Z,15.77
2018-02-02T06:59:26.368Z,14.40
2018-02-02T07:00:30.539Z,13.45
2018-02-02T07:01:35.494Z,16.00
2018-02-02T07:02:39.721Z,17.70
2018-02-02T07:03:43.926Z,24.08
2018-02-02T07:04:48.375Z,21.83
2018-02-02T07:05:53.395Z,28.33
2018-02-02T07:06:57.744Z,23.38
2018-02-02T07:08:01.951Z,28.45
2018-02-02T07:09:06.915Z,26.92
2018-02-02T07:10:11.167Z,26.85
2018-02-02T07:11:15.618Z,26.23
2018-02-02T07:12:20.010Z,27.15
2018-02-02T07:13:24.265Z,27.00
2018-02-02T07:14:28.600Z,27.23
2018-02-02T07:15:32.768Z,29.33
2018-02-02T07:16:36.954Z,28.67
2018-02-02T07:17:41.914Z,33.97
2018-02-02T07:18:46.531Z,27.65
2018-02-02T07:19:51.475Z,29.40
2018-02-02T07:20:55.733Z,30.35
2018-02-02T07:22:00.813Z,26.67
2018-02-02T07:23:05.017Z,27.90
2018-02-02T07:24:09.299Z,34.72
2018-02-02T07:25:14.315Z,33.65
2018-02-02T07:26:19.027Z,29.20
2018-02-02T07:27:23.730Z,37.17
2018-02-02T07:28:27.917Z,42.30
2018-02-02T07:29:32.129Z,30.62
2018-02-02T07:30:36.342Z,32.97
2018-02-02T07:31:40.541Z,34.42
2018-02-02T07:32:44.781Z,36.05
2018-02-02T07:33:49.099Z,39.20
2018-02-02T07:34:53.337Z,36.00
2018-02-02T07:35:57.535Z,29.77
2018-02-02T07:37:01.751Z,35.33
2018-02-02T07:38:05.964Z,37.03
2018-02-02T07:39:10.145Z,36.65
2018-02-02T07:40:14.422Z,41.40
2018-02-02T07:41:20.716Z,38.00
2018-02-02T07:42:24.976Z,34.67
2018-02-02T07:43:29.220Z,37.53
2018-02-02T07:44:33.434Z,35.00
2018-02-02T07:45:37.612Z,39.63
2018-02-02T07:46:42.592Z,42.30
2018-02-02T07:47:47.907Z,44.85
2018-02-02T07:48:52.206Z,42.33
2018-02-02T07:49:56.456Z,39.47
2018-02-02T07:51:00.623Z,39.83
2018-02-02T07:52:05.573Z,33.47
2018-02-02T07:53:09.826Z,43.38
2018-02-02T07:54:14.008Z,39.58
2018-02-02T07:55:18.803Z,40.30
2018-02-02T07:56:23.023Z,38.75
2018-02-02T07:57:27.346Z,42.22
2018-02-02T07:58:31.571Z,44.67
2018-02-02T07:59:35.789Z,40.20
2018-02-02T08:00:45.610Z,41.60
2018-02-02T08:01:51.355Z,44.13
2018-02-02T08:02:55.679Z,50.35
2018-02-02T08:03:59.928Z,48.00
2018-02-02T08:05:04.141Z,41.83
2018-02-02T08:06:08.339Z,45.15
2018-02-02T08:07:12.524Z,40.40
2018-02-02T08:08:17.365Z,46.35
2018-02-02T08:09:21.752Z,53.43
2018-02-02T08:10:26.756Z,41.77
2018-02-02T08:11:30.925Z,48.17
2018-02-02T08:12:35.150Z,47.20
2018-02-02T08:13:39.351Z,54.22
2018-02-02T08:14:43.584Z,56.05
2018-02-02T08:15:49.482Z,53.10
2018-02-02T08:16:54.746Z,46.83
2018-02-02T08:17:58.987Z,42.53
2018-02-02T08:19:03.172Z,51.33
2018-02-02T08:20:07.775Z,46.37
2018-02-02T08:21:11.961Z,36.90
2018-02-02T08:22:17.415Z,43.53
2018-02-02T08:23:22.487Z,36.07
2018-02-02T08:24:26.742Z,39.97
2018-02-02T08:25:30.991Z,44.23
2018-02-02T08:26:35.228Z,35.63
2018-02-02T08:27:39.394Z,44.57
2018-02-02T08:28:43.573Z,39.30
2018-02-02T08:29:48.642Z,37.60
2018-02-02T08:30:52.934Z,35.35
2018-02-02T08:31:57.167Z,41.97
2018-02-02T08:33:01.389Z,35.25
2018-02-02T08:34:05.577Z,28.27
2018-02-02T08:35:09.882Z,37.38
2018-02-02T08:36:14.097Z,36.20
2018-02-02T08:37:18.411Z,39.55
2018-02-02T08:38:22.662Z,29.80
2018-02-02T08:39:26.848Z,36.28
2018-02-02T08:40:31.059Z,40.40
2018-02-02T08:41:35.250Z,39.60
2018-02-02T08:42:39.442Z,41.13
2018-02-02T08:43:44.523Z,41.17
2018-02-02T08:44:49.331Z,38.80
2018-02-02T08:45:53.998Z,41.00
2018-02-02T08:46:59.083Z,37.97
2018-02-02T08:48:03.295Z,50.03
2018-02-02T08:49:07.504Z,38.55
2018-02-02T08:50:11.695Z,45.33
2018-02-02T08:51:16.110Z,50.92
2018-02-02T08:52:20.435Z,51.95
2018-02-02T08:53:24.958Z,49.97
2018-02-02T08:54:29.187Z,42.73
2018-02-02T08:55:33.383Z,42.47
2018-02-02T08:56:37.551Z,45.63
2018-02-02T08:57:42.524Z,45.17
2018-02-02T08:58:46.793Z,41.55
2018-02-02T08:59:51.236Z,35.10
2018-02-02T09:01:02.044Z,37.83
2018-02-02T09:02:07.612Z,39.63
2018-02-02T09:03:11.869Z,44.03
2018-02-02T09:04:16.172Z,38.63
2018-02-02T09:05:20.541Z,39.43
2018-02-02T09:06:25.030Z,32.60
2018-02-02T09:07:29.254Z,26.90
2018-02-02T09:08:33.483Z,27.40
2018-02-02T09:09:37.664Z,27.60
2018-02-02T09:10:41.826Z,33.70
2018-02-02T09:11:46.724Z,30.37
2018-02-02T09:12:51.136Z,30.20
2018-02-02T09:13:57.269Z,26.90
2018-02-02T09:15:01.445Z,33.80
2018-02-02T09:16:05.656Z,33.38
2018-02-02T09:17:09.902Z,28.83
2018-02-02T09:18:14.123Z,30.70
2018-02-02T09:19:18.366Z,29.90
2018-02-02T09:20:22.603Z,28.33
2018-02-02T09:21:26.887Z,27.27
2018-02-02T09:22:31.853Z,19.50
2018-02-02T09:23:36.014Z,22.93
2018-02-02T09:24:40.290Z,27.50
2018-02-02T09:25:44.460Z,22.03
2018-02-02T09:26:49.063Z,23.35
2018-02-02T09:27:53.473Z,40.53
2018-02-02T09:28:57.662Z,17.77
2018-02-02T09:30:01.850Z,28.98
2018-02-02T09:31:06.015Z,27.63
2018-02-02T09:32:10.956Z,17.02
2018-02-02T09:33:16.009Z,15.23
2018-02-02T09:34:20.247Z,15.50
2018-02-02T09:35:24.416Z,14.47
2018-02-02T09:36:28.605Z,15.80
2018-02-02T09:37:33.575Z,17.93
2018-02-02T09:38:37.783Z,14.00
2018-02-02T09:39:41.956Z,30.20
2018-02-02T09:40:46.195Z,16.90
2018-02-02T09:41:50.402Z,18.43
2018-02-02T09:42:54.748Z,18.43
2018-02-02T09:43:58.928Z,14.07
2018-02-02T09:45:03.124Z,20.30
2018-02-02T09:46:08.145Z,14.30
2018-02-02T09:47:13.086Z,16.13
2018-02-02T09:48:17.303Z,20.57
2018-02-02T09:49:21.505Z,18.57
2018-02-02T09:50:26.434Z,14.83
2018-02-02T09:51:31.411Z,13.07
2018-02-02T09:52:35.603Z,9.70
2018-02-02T09:53:39.808Z,12.53
2018-02-02T09:54:44.010Z,13.50
2018-02-02T09:55:48.201Z,16.03
2018-02-02T09:56:52.432Z,13.53
2018-02-02T09:57:56.603Z,14.53
2018-02-02T09:59:00.801Z,16.93
2018-02-02T10:00:05.375Z,16.10
2018-02-02T10:01:09.565Z,7.60
2018-02-02T10:02:14.547Z,12.17
2018-02-02T10:03:19.220Z,12.70
2018-02-02T10:04:23.477Z,13.43
2018-02-02T10:05:27.702Z,15.40
2018-02-02T10:06:31.886Z,13.20
2018-02-02T10:07:36.071Z,12.03
2018-02-02T10:08:40.230Z,11.60
2018-02-02T10:09:44.532Z,10.80
2018-02-02T10:10:49.154Z,14.87
2018-02-02T10:11:53.360Z,11.90
2018-02-02T10:12:57.596Z,15.03
2018-02-02T10:14:01.774Z,15.00
2018-02-02T10:15:05.991Z,11.50
2018-02-02T10:16:10.242Z,10.00
2018-02-02T10:17:15.174Z,9.40
2018-02-02T10:18:19.421Z,18.30
2018-02-02T10:19:23.622Z,12.67
2018-02-02T10:20:27.791Z,21.43
2018-02-02T10:21:31.990Z,14.43
2018-02-02T10:22:36.174Z,14.03
2018-02-02T10:23:40.356Z,11.60
2018-02-02T10:24:44.547Z,16.40
2018-02-02T10:25:48.794Z,12.10
2018-02-02T10:26:53.067Z,19.60
2018-02-02T10:27:58.031Z,12.57
2018-02-02T10:29:02.196Z,13.10
2018-02-02T10:30:06.383Z,17.70
2018-02-02T10:31:10.586Z,12.93
2018-02-02T10:32:14.771Z,13.03
2018-02-02T10:33:19.056Z,18.37
2018-02-02T10:34:24.018Z,16.33
2018-02-02T10:35:28.207Z,13.00
2018-02-02T10:36:32.393Z,16.60
2018-02-02T10:37:37.323Z,16.63
2018-02-02T10:38:42.303Z,9.80
2018-02-02T10:39:47.009Z,10.03
2018-02-02T10:40:51.187Z,10.60
2018-02-02T10:41:55.639Z,10.00
2018-02-02T10:42:59.832Z,13.67
2018-02-02T10:44:04.063Z,8.00
2018-02-02T10:45:08.230Z,24.10
2018-02-02T10:46:13.173Z,12.70
2018-02-02T10:47:17.377Z,9.10
2018-02-02T10:48:21.579Z,11.73
2018-02-02T10:49:26.919Z,16.60
2018-02-02T10:50:31.853Z,15.27
2018-02-02T10:51:36.802Z,17.73
2018-02-02T10:52:41.009Z,15.13
2018-02-02T10:53:45.187Z,8.37
2018-02-02T10:54:50.251Z,10.27
2018-02-02T10:55:54.496Z,10.80
2018-02-02T10:56:58.660Z,6.87
2018-02-02T10:58:02.867Z,9.00
2018-02-02T10:59:07.051Z,13.63
2018-02-02T11:00:11.615Z,13.90
2018-02-02T11:01:21.337Z,7.43
2018-02-02T11:02:31.856Z,12.27
2018-02-02T11:03:41.494Z,13.50
2018-02-02T11:04:45.702Z,26.77
2018-02-02T11:05:49.927Z,13.00
2018-02-02T11:06:54.884Z,15.10
2018-02-02T11:07:59.055Z,10.93
2018-02-02T11:09:03.263Z,12.63
2018-02-02T11:10:07.447Z,10.83
2018-02-02T11:11:11.654Z,8.40
2018-02-02T11:12:15.846Z,11.53
2018-02-02T11:13:20.059Z,16.87
2018-02-02T11:14:24.313Z,11.73
2018-02-02T11:15:28.490Z,11.70
2018-02-02T11:16:33.007Z,8.30
2018-02-02T11:17:37.187Z,6.40
2018-02-02T11:18:42.128Z,6.63
2018-02-02T11:19:46.348Z,8.87
2018-02-02T11:20:50.567Z,10.03
2018-02-02T11:21:54.784Z,4.63
2018-02-02T11:22:58.961Z,7.33
2018-02-02T11:24:03.993Z,9.80
2018-02-02T11:25:08.154Z,11.20
2018-02-02T11:26:12.354Z,7.37
2018-02-02T11:27:16.621Z,10.50
2018-02-02T11:28:21.257Z,10.83
2018-02-02T11:29:25.468Z,10.40
2018-02-02T11:30:29.646Z,9.70
2018-02-02T11:31:34.593Z,9.00
2018-02-02T11:32:38.758Z,7.37
2018-02-02T11:33:42.996Z,10.60
2018-02-02T11:34:48.014Z,9.30
2018-02-02T11:35:52.333Z,6.07
2018-02-02T11:36:57.263Z,10.50
2018-02-02T11:38:01.444Z,10.50
2018-02-02T11:39:05.693Z,7.23
2018-02-02T11:40:10.653Z,17.50
2018-02-02T11:41:14.867Z,10.07
2018-02-02T11:42:19.427Z,7.40
2018-02-02T11:43:25.116Z,7.93
2018-02-02T11:44:29.294Z,13.43
2018-02-02T11:45:33.471Z,6.27
2018-02-02T11:46:37.659Z,9.63
2018-02-02T11:47:41.919Z,7.93
2018-02-02T11:48:46.306Z,5.90
2018-02-02T11:49:50.615Z,5.27
2018-02-02T11:50:54.813Z,6.33
2018-02-02T11:51:59.023Z,7.90
2018-02-02T11:53:03.243Z,13.40
2018-02-02T11:54:07.437Z,6.17
2018-02-02T11:55:11.683Z,5.27
2018-02-02T11:56:15.903Z,11.47
2018-02-02T11:57:20.573Z,4.87
2018-02-02T11:58:24.872Z,3.47
2018-02-02T11:59:29.804Z,10.50
2018-02-02T12:00:34.804Z,5.13
2018-02-02T12:01:39.045Z,6.80
2018-02-02T12:02:43.995Z,7.40
2018-02-02T12:03:48.244Z,9.30
2018-02-02T12:04:52.499Z,4.50
2018-02-02T12:05:56.833Z,15.43
2018-02-02T12:07:01.021Z,5.80
2018-02-02T12:08:06.034Z,8.10
2018-02-02T12:09:11.011Z,3.30
2018-02-02T12:10:15.356Z,9.30
2018-02-02T12:11:19.586Z,3.67
2018-02-02T12:12:24.561Z,3.63
2018-02-02T12:13:28.815Z,7.80
2018-02-02T12:14:33.797Z,5.17
2018-02-02T12:15:38.004Z,2.50
2018-02-02T12:16:42.196Z,7.60
2018-02-02T12:17:46.593Z,2.87
2018-02-02T12:18:51.565Z,5.00
2018-02-02T12:20:00.113Z,5.83
2018-02-02T12:21:04.978Z,6.17
2018-02-02T12:22:14.704Z,4.80
2018-02-02T12:23:24.896Z,5.07
2018-02-02T12:24:31.071Z,4.10
2018-02-02T12:27:24.483Z,10.53
2018-02-02T12:28:34.229Z,2.30
2018-02-02T12:29:44.782Z,6.37
2018-02-02T12:30:54.782Z,4.20
2018-02-02T12:32:11.829Z,2.63
2018-02-02T12:33:22.755Z,9.17
2018-02-02T12:34:46.864Z,3.37
2018-02-02T12:35:56.258Z,14.80
2018-02-02T12:37:00.510Z,4.40
2018-02-02T12:38:04.718Z,5.97
2018-02-02T12:39:09.727Z,5.47
2018-02-02T12:40:13.928Z,2.70
2018-02-02T12:41:19.312Z,9.70
2018-02-02T12:42:23.857Z,1.40
2018-02-02T12:43:28.057Z,7.00
2018-02-02T12:44:33.071Z,1.80
2018-02-02T12:45:37.246Z,3.30
2018-02-02T12:46:41.457Z,5.90
2018-02-02T12:48:03.409Z,4.60
2018-02-02T12:49:07.646Z,1.93
2018-02-02T12:50:15.451Z,6.03
2018-02-02T12:51:20.448Z,8.20
2018-02-02T12:52:24.676Z,6.93
2018-02-02T12:53:29.626Z,1.43
2018-02-02T12:54:33.792Z,4.60
2018-02-02T12:55:38.376Z,7.00
2018-02-02T12:56:42.630Z,7.30
2018-02-02T12:57:47.020Z,3.90
2018-02-02T12:58:51.302Z,11.20
2018-02-02T12:59:55.725Z,4.77
2018-02-02T13:00:59.956Z,4.50
2018-02-02T13:02:04.149Z,5.17
2018-02-02T13:03:08.383Z,6.93
2018-02-02T13:04:12.560Z,5.13
2018-02-02T13:05:16.873Z,1.43
2018-02-02T13:06:22.157Z,3.50
2018-02-02T13:07:27.102Z,2.97
2018-02-02T13:08:31.313Z,7.30
2018-02-02T13:09:36.994Z,2.93
2018-02-02T13:10:41.226Z,3.10
2018-02-02T13:11:45.538Z,3.43
2018-02-02T13:12:50.161Z,2.13
2018-02-02T13:13:54.483Z,3.50
2018-02-02T13:14:58.674Z,1.00
2018-02-02T13:16:02.896Z,2.97
2018-02-02T13:17:07.167Z,1.30
2018-02-02T13:18:12.171Z,3.40
2018-02-02T13:19:16.511Z,1.93
2018-02-02T13:20:21.656Z,0.97
2018-02-02T13:21:25.934Z,2.73
2018-02-02T13:22:30.870Z,6.77
2018-02-02T13:23:35.895Z,2.60
2018-02-02T13:24:40.087Z,1.80
2018-02-02T13:25:44.290Z,4.73
2018-02-02T13:26:48.742Z,1.90
2018-02-02T13:27:52.993Z,5.23
2018-02-02T13:28:57.293Z,3.67
2018-02-02T13:30:01.459Z,5.27
2018-02-02T13:31:05.667Z,5.27
2018-02-02T13:32:09.856Z,1.10
2018-02-02T13:33:14.024Z,0.77
2018-02-02T13:34:18.288Z,2.33
2018-02-02T13:35:23.325Z,1.50
2018-02-02T13:36:27.985Z,4.07
2018-02-02T13:37:32.244Z,4.50
2018-02-02T13:38:36.431Z,3.60
2018-02-02T13:39:40.594Z,4.20
2018-02-02T13:40:44.776Z,1.57
2018-02-02T13:41:50.680Z,2.00
2018-02-02T13:42:54.896Z,3.47
2018-02-02T13:43:59.095Z,3.03
2018-02-02T13:45:04.052Z,0.63
2018-02-02T13:46:08.292Z,2.87
2018-02-02T13:47:12.464Z,7.30
2018-02-02T13:48:16.707Z,4.13
2018-02-02T13:49:21.160Z,0.90
2018-02-02T13:50:26.175Z,2.00
2018-02-02T13:51:30.491Z,1.13
2018-02-02T13:52:34.685Z,1.90
2018-02-02T13:53:38.888Z,1.10
2018-02-02T13:54:43.096Z,1.47
2018-02-02T13:55:47.723Z,2.30
2018-02-02T13:56:52.807Z,4.97
2018-02-02T13:57:57.098Z,1.23
2018-02-02T13:59:02.050Z,8.13
2018-02-02T14:00:06.237Z,2.73
2018-02-02T14:01:11.213Z,1.10
2018-02-02T14:02:15.447Z,1.90